Time;durP1;ratioP1;P1;durP2;ratioP2;P2;SDS_P1;SDS_P2;PMS_P1;PMS_P2;Temp;Humidity;BMP_temperature;BMP_pressure;BME280_temperature;BME280_humidity;BME280_pressure;Samples;Min_cycle;Max_cycle;Signal;HPM_P1;HPM_P2
2024/01/31 00:02:27;;;;;;;24.23;8.57;;;10.50;57.60;;;;;;6270354;28;20075;-73
2024/01/31 00:05:28;;;;;;;19.40;8.75;;;10.40;57.60;;;;;;6253053;28;20087;-73
2024/01/31 00:08:33;;;;;;;22.42;8.85;;;10.40;57.70;;;;;;6255703;28;20040;-73
2024/01/31 00:11:34;;;;;;;35.30;9.75;;;10.30;57.70;;;;;;6235551;28;20384;-73
2024/01/31 00:14:35;;;;;;;18.17;8.57;;;10.30;57.80;;;;;;6253428;28;20017;-71
2024/01/31 00:17:37;;;;;;;20.02;9.20;;;10.20;57.90;;;;;;6253660;28;20489;-73
2024/01/31 00:20:39;;;;;;;18.75;8.02;;;10.20;57.90;;;;;;6252782;28;20017;-72
2024/01/31 00:23:40;;;;;;;17.75;7.15;;;10.20;57.90;;;;;;6234078;28;20029;-72
2024/01/31 00:26:41;;;;;;;20.35;9.10;;;10.20;58.00;;;;;;6251632;28;20033;-73
2024/01/31 00:29:42;;;;;;;17.23;6.85;;;10.30;58.00;;;;;;6251886;28;20727;-71
2024/01/31 00:32:43;;;;;;;11.98;6.60;;;10.20;57.90;;;;;;6251816;28;20025;-72
2024/01/31 00:35:44;;;;;;;13.95;6.68;;;10.20;57.80;;;;;;6236228;28;20120;-72
2024/01/31 00:38:45;;;;;;;19.95;7.90;;;10.20;57.60;;;;;;6246811;28;20013;-71
2024/01/31 00:41:47;;;;;;;14.00;6.35;;;10.20;57.60;;;;;;6251495;28;20086;-72
2024/01/31 00:44:50;;;;;;;18.30;7.93;;;10.20;57.60;;;;;;6253379;28;20112;-73
2024/01/31 00:47:52;;;;;;;26.73;9.18;;;10.20;57.60;;;;;;6254105;28;20029;-72
2024/01/31 00:50:53;;;;;;;18.27;8.57;;;10.20;57.60;;;;;;6230305;28;20056;-72
2024/01/31 00:53:54;;;;;;;16.38;8.68;;;10.20;57.70;;;;;;6254323;28;20063;-70
2024/01/31 00:56:55;;;;;;;17.80;8.45;;;10.10;57.70;;;;;;6257943;28;20029;-75
2024/01/31 00:59:56;;;;;;;20.08;8.75;;;10.10;57.80;;;;;;6252797;28;20533;-72
2024/01/31 01:02:56;;;;;;;17.75;7.50;;;10.10;57.80;;;;;;6240654;28;20029;-72
2024/01/31 01:05:57;;;;;;;14.23;6.53;;;10.00;57.90;;;;;;6240929;28;20064;-72
2024/01/31 01:08:59;;;;;;;16.77;5.75;;;10.00;57.90;;;;;;6256719;28;20033;-71
2024/01/31 01:12:02;;;;;;;19.20;7.25;;;10.00;57.90;;;;;;6239489;28;20025;-71
2024/01/31 01:15:05;;;;;;;19.27;7.82;;;10.00;57.90;;;;;;6255026;28;20100;-72
2024/01/31 01:18:08;;;;;;;16.15;7.68;;;9.90;57.90;;;;;;6255836;28;20486;-73
2024/01/31 01:21:10;;;;;;;18.58;7.18;;;9.90;57.90;;;;;;6256418;28;20171;-73
2024/01/31 01:24:11;;;;;;;20.15;6.75;;;9.90;57.80;;;;;;6254126;28;20109;-73
2024/01/31 01:27:11;;;;;;;17.63;7.15;;;9.90;57.70;;;;;;6257629;28;20084;-73
2024/01/31 01:30:12;;;;;;;21.25;7.68;;;9.90;57.70;;;;;;6240373;28;20043;-74
2024/01/31 01:33:14;;;;;;;20.48;8.15;;;9.80;57.80;;;;;;6253264;28;20031;-73
2024/01/31 01:36:15;;;;;;;20.60;8.63;;;9.70;57.90;;;;;;6255935;28;20029;-73
2024/01/31 01:39:15;;;;;;;20.05;8.38;;;9.60;58.10;;;;;;6241250;28;20048;-72
2024/01/31 01:42:16;;;;;;;19.15;8.45;;;9.60;58.30;;;;;;6255135;28;20165;-72
2024/01/31 01:45:17;;;;;;;17.75;7.13;;;9.50;58.50;;;;;;6254289;28;20021;-72
2024/01/31 01:48:18;;;;;;;20.40;7.68;;;9.40;58.70;;;;;;6239665;28;20064;-72
2024/01/31 01:51:21;;;;;;;18.95;7.45;;;9.30;58.90;;;;;;6270514;28;20021;-71
2024/01/31 01:54:22;;;;;;;14.63;7.63;;;9.20;59.20;;;;;;6227199;28;20403;-72
2024/01/31 01:57:24;;;;;;;20.85;8.30;;;9.10;59.30;;;;;;6254407;28;20032;-72
2024/01/31 02:00:25;;;;;;;18.10;8.65;;;9.10;59.60;;;;;;6251384;28;20094;-72
2024/01/31 02:03:29;;;;;;;18.58;7.55;;;9.00;59.70;;;;;;6237959;28;20104;-73
2024/01/31 02:06:30;;;;;;;27.15;7.80;;;9.00;60.00;;;;;;6251588;28;20154;-72
2024/01/31 02:09:32;;;;;;;22.92;9.23;;;8.90;60.10;;;;;;6236560;28;20123;-72
2024/01/31 02:12:33;;;;;;;14.40;7.05;;;8.80;60.30;;;;;;6252859;28;20013;-72
2024/01/31 02:15:34;;;;;;;18.13;7.55;;;8.80;60.40;;;;;;6261411;28;20018;-71
2024/01/31 02:18:35;;;;;;;12.65;6.63;;;8.70;60.70;;;;;;6286152;28;20496;-73
2024/01/31 02:21:38;;;;;;;23.25;8.88;;;8.70;60.90;;;;;;6253353;28;20029;-72
2024/01/31 02:24:38;;;;;;;11.13;6.72;;;8.70;61.10;;;;;;6237231;28;20467;-72
2024/01/31 02:27:40;;;;;;;19.80;8.57;;;8.60;61.20;;;;;;6253645;28;20032;-73
2024/01/31 02:30:42;;;;;;;21.50;9.07;;;8.50;61.40;;;;;;6255209;28;20028;-70
2024/01/31 02:33:43;;;;;;;18.65;8.00;;;8.50;61.50;;;;;;6253086;28;20028;-72
2024/01/31 02:36:45;;;;;;;16.50;7.88;;;8.50;61.70;;;;;;6251955;28;20103;-72
2024/01/31 02:39:46;;;;;;;24.50;9.00;;;8.50;61.90;;;;;;6254054;28;20073;-71
2024/01/31 02:42:47;;;;;;;26.65;8.57;;;8.40;61.90;;;;;;6253227;28;20045;-72
2024/01/31 02:45:48;;;;;;;19.35;8.77;;;8.40;61.90;;;;;;6253004;28;20070;-72
2024/01/31 02:48:49;;;;;;;21.80;9.85;;;8.40;62.00;;;;;;6235595;28;20194;-71
2024/01/31 02:51:49;;;;;;;19.65;9.73;;;8.40;62.10;;;;;;6280537;28;20036;-71
2024/01/31 02:54:51;;;;;;;19.30;8.73;;;8.40;62.10;;;;;;6253660;28;20029;-72
2024/01/31 02:57:52;;;;;;;19.95;8.77;;;8.40;62.20;;;;;;6234871;28;20036;-71
2024/01/31 03:00:52;;;;;;;17.80;8.32;;;8.40;62.20;;;;;;6238239;28;20124;-72
2024/01/31 03:03:53;;;;;;;22.52;8.90;;;8.40;62.30;;;;;;6252479;28;20100;-70
2024/01/31 03:06:54;;;;;;;17.30;8.07;;;8.40;62.40;;;;;;6252249;28;20505;-72
2024/01/31 03:09:55;;;;;;;17.67;8.48;;;8.40;62.40;;;;;;6249354;28;20389;-71
2024/01/31 03:12:56;;;;;;;24.13;8.52;;;8.40;62.50;;;;;;6252512;28;20013;-72
2024/01/31 03:15:57;;;;;;;20.63;8.48;;;8.40;62.60;;;;;;6253773;28;20443;-72
2024/01/31 03:18:58;;;;;;;16.17;7.60;;;8.40;62.60;;;;;;6253812;28;20032;-70
2024/01/31 03:21:59;;;;;;;26.45;9.70;;;8.30;62.60;;;;;;6252241;28;20024;-74
2024/01/31 03:25:00;;;;;;;16.75;8.00;;;8.30;62.60;;;;;;6237142;28;20025;-72
2024/01/31 03:28:02;;;;;;;18.80;8.07;;;8.30;62.80;;;;;;6256426;28;20126;-71
2024/01/31 03:31:03;;;;;;;19.30;9.13;;;8.30;62.80;;;;;;6252610;28;20389;-71
2024/01/31 03:34:07;;;;;;;19.75;7.80;;;8.30;62.90;;;;;;6251981;28;20164;-71
2024/01/31 03:37:08;;;;;;;21.23;7.80;;;8.20;62.90;;;;;;6248902;28;20061;-72
2024/01/31 03:40:09;;;;;;;17.45;9.05;;;8.20;63.00;;;;;;6250134;28;20059;-72
2024/01/31 03:43:10;;;;;;;20.08;8.30;;;8.10;63.00;;;;;;6254340;28;20093;-71
2024/01/31 03:46:14;;;;;;;20.48;8.60;;;8.10;63.20;;;;;;6254805;28;20579;-72
2024/01/31 03:49:15;;;;;;;26.70;8.50;;;8.10;63.30;;;;;;6252302;28;20048;-72
2024/01/31 03:52:16;;;;;;;17.77;9.48;;;8.10;63.30;;;;;;6252708;28;20040;-72
2024/01/31 03:55:17;;;;;;;24.73;7.90;;;8.00;63.30;;;;;;6236362;28;20043;-71
2024/01/31 03:58:18;;;;;;;16.65;8.90;;;8.00;63.50;;;;;;6251412;28;20130;-72
2024/01/31 04:01:19;;;;;;;19.67;9.68;;;8.00;63.60;;;;;;6251767;28;20028;-71
2024/01/31 04:04:19;;;;;;;23.05;7.68;;;8.00;63.70;;;;;;6253075;28;20105;-71
2024/01/31 04:07:20;;;;;;;15.10;7.57;;;8.00;63.70;;;;;;6237861;28;20009;-72
2024/01/31 04:10:21;;;;;;;11.95;6.97;;;8.00;63.80;;;;;;6251721;28;20040;-71
2024/01/31 04:13:22;;;;;;;29.27;8.27;;;8.00;63.80;;;;;;6251362;28;20017;-71
2024/01/31 04:16:23;;;;;;;17.10;6.95;;;7.90;63.80;;;;;;6252267;28;20020;-70
2024/01/31 04:19:24;;;;;;;15.57;8.32;;;7.90;63.80;;;;;;6234611;28;20639;-72
2024/01/31 04:22:25;;;;;;;14.73;7.68;;;7.90;63.90;;;;;;6250736;28;20017;-72
2024/01/31 04:25:25;;;;;;;17.67;6.80;;;7.90;63.90;;;;;;6253494;28;20032;-72
2024/01/31 04:28:26;;;;;;;18.70;7.60;;;7.80;63.90;;;;;;6250724;28;20037;-72
2024/01/31 04:31:27;;;;;;;16.05;7.93;;;7.80;63.90;;;;;;6233196;28;20020;-70
2024/01/31 04:34:29;;;;;;;14.13;6.40;;;7.80;64.20;;;;;;6253768;28;20010;-71
2024/01/31 04:37:32;;;;;;;15.77;7.82;;;7.70;64.20;;;;;;6250450;28;20052;-72
2024/01/31 04:40:32;;;;;;;18.83;7.32;;;7.70;64.40;;;;;;6251386;28;20511;-71
2024/01/31 04:43:34;;;;;;;24.35;8.95;;;7.70;64.60;;;;;;6235071;28;20033;-72
2024/01/31 04:46:36;;;;;;;22.10;7.43;;;7.70;64.60;;;;;;6256356;28;20050;-71
2024/01/31 04:49:37;;;;;;;16.58;6.75;;;7.70;64.60;;;;;;6232621;28;20048;-71
2024/01/31 04:52:38;;;;;;;17.13;7.07;;;7.70;64.50;;;;;;6248087;28;20052;-72
2024/01/31 04:55:39;;;;;;;20.38;7.18;;;7.70;64.50;;;;;;6254397;28;20458;-72
2024/01/31 04:58:40;;;;;;;16.65;8.40;;;7.60;64.40;;;;;;6252690;28;20051;-72
2024/01/31 05:01:43;;;;;;;18.30;7.03;;;7.70;64.70;;;;;;6249752;28;20042;-72
2024/01/31 05:04:44;;;;;;;18.85;7.90;;;7.70;64.70;;;;;;6249257;28;20048;-72
2024/01/31 05:07:45;;;;;;;20.27;8.93;;;7.70;64.60;;;;;;6247991;28;20017;-72
2024/01/31 05:10:47;;;;;;;17.02;6.45;;;7.80;64.60;;;;;;6250482;28;20137;-72
2024/01/31 05:13:47;;;;;;;18.17;6.97;;;7.80;64.60;;;;;;6252110;28;20509;-72
2024/01/31 05:16:49;;;;;;;24.23;6.97;;;7.80;64.50;;;;;;6234368;28;20048;-72
2024/01/31 05:19:50;;;;;;;14.85;7.28;;;7.80;64.50;;;;;;6234782;28;20041;-69
2024/01/31 05:22:51;;;;;;;14.43;7.40;;;7.80;64.50;;;;;;6252809;28;20112;-72
2024/01/31 05:25:52;;;;;;;13.82;6.88;;;7.90;64.50;;;;;;6235602;28;20073;-72
2024/01/31 05:28:53;;;;;;;20.92;7.75;;;7.90;64.30;;;;;;6252481;28;20156;-72
2024/01/31 05:31:54;;;;;;;20.77;7.95;;;7.90;64.20;;;;;;6250796;28;20037;-72
2024/01/31 05:34:55;;;;;;;15.82;8.18;;;7.90;64.10;;;;;;6251847;28;20052;-71
2024/01/31 05:37:56;;;;;;;18.55;7.13;;;7.90;64.00;;;;;;6252205;28;20075;-72
2024/01/31 05:40:57;;;;;;;14.52;7.28;;;7.90;64.00;;;;;;6259020;28;20128;-73
2024/01/31 05:43:59;;;;;;;21.15;7.47;;;7.90;64.00;;;;;;6255860;28;20024;-71
2024/01/31 05:47:00;;;;;;;16.20;6.47;;;7.90;64.00;;;;;;6256074;28;20025;-71
2024/01/31 05:50:01;;;;;;;23.45;7.95;;;7.80;64.10;;;;;;6256326;28;20079;-72
2024/01/31 05:53:02;;;;;;;16.58;7.95;;;7.80;64.10;;;;;;6242832;28;20063;-71
2024/01/31 05:56:05;;;;;;;21.27;7.57;;;7.80;64.10;;;;;;6235788;28;20629;-72
2024/01/31 05:59:05;;;;;;;31.65;6.28;;;7.70;64.10;;;;;;6265796;28;20013;-71
2024/01/31 06:02:06;;;;;;;14.00;7.22;;;7.70;64.50;;;;;;6262720;28;20810;-72
2024/01/31 06:05:07;;;;;;;15.10;7.90;;;7.60;64.70;;;;;;6279995;28;20028;-74
2024/01/31 06:08:08;;;;;;;14.32;5.47;;;7.60;64.90;;;;;;6263172;28;20508;-72
2024/01/31 06:11:09;;;;;;;12.75;6.13;;;7.60;64.90;;;;;;6262936;28;20116;-71
2024/01/31 06:14:10;;;;;;;29.63;7.18;;;7.60;64.90;;;;;;6269359;28;20431;-72
2024/01/31 06:17:14;;;;;;;17.17;7.25;;;7.70;64.90;;;;;;6261809;28;20350;-72
2024/01/31 06:20:15;;;;;;;14.70;7.13;;;7.70;64.80;;;;;;6264357;28;20146;-72
2024/01/31 06:23:16;;;;;;;15.32;7.55;;;7.70;64.80;;;;;;6263082;28;20024;-74
2024/01/31 06:26:17;;;;;;;21.02;8.30;;;7.70;64.80;;;;;;6266235;28;20057;-72
2024/01/31 06:29:18;;;;;;;19.30;7.97;;;7.70;64.70;;;;;;6264744;28;20083;-73
2024/01/31 06:32:22;;;;;;;14.82;6.90;;;7.80;64.70;;;;;;6265208;28;20108;-73
2024/01/31 06:35:23;;;;;;;14.60;6.30;;;7.80;64.50;;;;;;6259861;28;20020;-72
2024/01/31 06:38:24;;;;;;;13.10;6.60;;;7.80;64.30;;;;;;6247452;28;20511;-72
2024/01/31 06:41:25;;;;;;;12.80;6.68;;;7.80;64.20;;;;;;6265038;28;20055;-75
2024/01/31 06:44:26;;;;;;;13.02;7.10;;;7.70;64.10;;;;;;6266018;28;20013;-73
2024/01/31 06:47:28;;;;;;;20.08;7.90;;;7.70;64.00;;;;;;6268299;28;20104;-72
2024/01/31 06:50:29;;;;;;;13.90;6.97;;;7.70;63.90;;;;;;6267443;28;20732;-73
2024/01/31 06:53:29;;;;;;;13.30;6.47;;;7.70;63.80;;;;;;6263593;28;20048;-73
2024/01/31 06:56:30;;;;;;;18.73;6.65;;;7.60;63.80;;;;;;6260407;28;20096;-71
2024/01/31 06:59:31;;;;;;;15.35;6.43;;;7.60;63.80;;;;;;6290104;28;20162;-73
2024/01/31 07:02:32;;;;;;;20.70;7.57;;;7.60;63.80;;;;;;6256634;28;20025;-72
2024/01/31 07:05:33;;;;;;;11.90;6.20;;;7.60;63.80;;;;;;6254689;28;20052;-72
2024/01/31 07:08:34;;;;;;;14.10;6.07;;;7.60;63.80;;;;;;6254321;28;20610;-72
2024/01/31 07:11:35;;;;;;;10.00;5.40;;;7.50;63.90;;;;;;6253626;28;20064;-71
2024/01/31 07:14:37;;;;;;;14.15;5.88;;;7.50;64.20;;;;;;6269000;28;20025;-71
2024/01/31 07:17:38;;;;;;;20.45;6.93;;;7.40;64.30;;;;;;6235929;28;20111;-72
2024/01/31 07:20:39;;;;;;;13.02;6.15;;;7.40;64.50;;;;;;6253140;28;20033;-73
2024/01/31 07:23:40;;;;;;;13.57;6.78;;;7.40;64.60;;;;;;6254799;28;20104;-72
2024/01/31 07:26:41;;;;;;;14.20;6.35;;;7.50;64.70;;;;;;6236136;28;20078;-73
2024/01/31 07:29:48;;;;;;;16.08;6.13;;;7.50;64.70;;;;;;6251954;28;20051;-73
2024/01/31 07:32:49;;;;;;;12.88;6.80;;;7.50;64.60;;;;;;6236339;28;20021;-72
2024/01/31 07:35:51;;;;;;;16.98;7.20;;;7.60;64.50;;;;;;6251766;28;20211;-72
2024/01/31 07:38:52;;;;;;;17.30;6.43;;;7.50;64.40;;;;;;6253682;28;20466;-72
2024/01/31 07:41:52;;;;;;;25.92;9.75;;;7.60;64.60;;;;;;6252116;28;20449;-72
2024/01/31 07:44:55;;;;;;;20.77;7.32;;;7.60;64.50;;;;;;6236159;28;20037;-73
2024/01/31 07:47:56;;;;;;;18.88;7.68;;;7.70;64.40;;;;;;6236179;28;20485;-72
2024/01/31 07:51:01;;;;;;;15.40;6.70;;;7.80;64.40;;;;;;6251319;28;20036;-72
2024/01/31 07:54:03;;;;;;;15.93;6.50;;;7.90;64.40;;;;;;6252752;28;20036;-72
2024/01/31 07:57:04;;;;;;;18.40;7.38;;;8.00;64.20;;;;;;6234820;28;20132;-71
2024/01/31 08:00:06;;;;;;;16.17;6.82;;;8.10;63.90;;;;;;6252641;28;20086;-71
2024/01/31 08:03:07;;;;;;;12.55;6.88;;;8.10;63.60;;;;;;6235268;28;20043;-73
2024/01/31 08:06:08;;;;;;;15.93;7.55;;;8.20;63.40;;;;;;6252619;28;20033;-71
2024/01/31 08:09:11;;;;;;;12.82;7.32;;;8.30;63.10;;;;;;6234339;28;20171;-72
2024/01/31 08:12:12;;;;;;;12.18;5.93;;;8.40;63.00;;;;;;6251639;28;20017;-73
2024/01/31 08:15:14;;;;;;;32.42;7.68;;;8.40;62.80;;;;;;6252710;28;20068;-71
2024/01/31 08:18:14;;;;;;;21.25;7.30;;;8.50;62.70;;;;;;6248476;28;20091;-72
2024/01/31 08:21:15;;;;;;;13.98;5.90;;;8.60;62.40;;;;;;6253005;28;20094;-72
2024/01/31 08:24:18;;;;;;;18.90;7.45;;;8.60;62.30;;;;;;6254068;28;20156;-72
2024/01/31 08:27:19;;;;;;;23.58;7.63;;;8.70;62.10;;;;;;6251475;28;20104;-72
2024/01/31 08:30:21;;;;;;;15.90;8.07;;;8.70;61.70;;;;;;6253551;28;20028;-72
2024/01/31 08:33:21;;;;;;;12.18;6.50;;;8.80;61.40;;;;;;6250700;28;20108;-72
2024/01/31 08:36:23;;;;;;;18.80;7.35;;;8.70;61.20;;;;;;6234301;28;20166;-72
2024/01/31 08:39:26;;;;;;;23.15;7.13;;;8.60;61.20;;;;;;6248568;28;20044;-72
2024/01/31 08:42:29;;;;;;;20.05;7.13;;;8.70;61.50;;;;;;6251174;28;20028;-72
2024/01/31 08:45:31;;;;;;;17.13;7.63;;;8.70;61.50;;;;;;6252217;28;20153;-74
2024/01/31 08:48:32;;;;;;;14.98;6.85;;;8.70;61.20;;;;;;6235651;28;20025;-70
2024/01/31 08:51:35;;;;;;;32.40;8.88;;;8.70;61.00;;;;;;6249493;28;20061;-72
2024/01/31 08:54:37;;;;;;;17.08;7.22;;;8.70;61.10;;;;;;6251042;28;20033;-73
2024/01/31 08:57:38;;;;;;;24.77;10.98;;;8.70;61.10;;;;;;6235012;28;20044;-71
2024/01/31 09:00:39;;;;;;;15.88;6.72;;;8.70;61.20;;;;;;6252720;28;20032;-73
2024/01/31 09:03:40;;;;;;;14.13;7.35;;;8.80;61.30;;;;;;6246893;28;20040;-73
2024/01/31 09:06:41;;;;;;;22.58;6.82;;;8.80;61.20;;;;;;6229106;28;20422;-74
2024/01/31 09:09:41;;;;;;;19.23;6.03;;;8.90;61.30;;;;;;6234747;28;20111;-72
2024/01/31 09:12:44;;;;;;;17.17;8.90;;;8.90;61.20;;;;;;6251027;28;20099;-74
2024/01/31 09:15:45;;;;;;;15.65;6.80;;;9.00;61.00;;;;;;6254922;28;20021;-72
2024/01/31 09:18:46;;;;;;;13.30;7.45;;;9.10;60.80;;;;;;6256873;28;20314;-73
2024/01/31 09:21:47;;;;;;;18.35;8.52;;;9.20;60.70;;;;;;6256252;28;20108;-72
2024/01/31 09:24:47;;;;;;;28.17;7.20;;;9.30;60.60;;;;;;6258138;28;20064;-73
2024/01/31 09:27:49;;;;;;;29.02;7.65;;;9.50;60.40;;;;;;6254034;28;20131;-71
2024/01/31 09:30:51;;;;;;;13.75;6.38;;;9.60;59.90;;;;;;6256901;28;20037;-72
2024/01/31 09:33:55;;;;;;;20.00;8.10;;;9.70;59.70;;;;;;6236204;28;20120;-72
2024/01/31 09:36:56;;;;;;;15.80;8.68;;;9.80;59.40;;;;;;6237127;28;20021;-72
2024/01/31 09:39:57;;;;;;;22.85;8.65;;;9.90;59.30;;;;;;6255060;28;20162;-72
2024/01/31 09:42:58;;;;;;;16.75;8.50;;;10.00;59.00;;;;;;6254219;28;20021;-71
2024/01/31 09:46:05;;;;;;;20.77;9.10;;;10.00;58.80;;;;;;6255165;28;20131;-72
2024/01/31 09:49:06;;;;;;;21.42;9.30;;;10.10;58.80;;;;;;6257535;28;20025;-73
2024/01/31 09:52:11;;;;;;;19.20;8.77;;;10.20;58.60;;;;;;6255447;28;20749;-72
2024/01/31 09:55:13;;;;;;;14.48;7.63;;;10.30;58.30;;;;;;6256821;28;20025;-74
2024/01/31 09:58:14;;;;;;;16.00;8.18;;;10.40;58.10;;;;;;6255778;28;20029;-72
2024/01/31 10:01:20;;;;;;;17.50;8.73;;;10.40;57.80;;;;;;6255513;28;20025;-72
2024/01/31 10:04:21;;;;;;;20.10;9.32;;;10.50;57.80;;;;;;6250735;28;20027;-73
2024/01/31 10:07:28;;;;;;;23.25;9.80;;;10.50;57.70;;;;;;6256342;28;20017;-73
2024/01/31 10:10:29;;;;;;;25.33;9.70;;;10.60;57.40;;;;;;6251505;28;20090;-73
2024/01/31 10:13:31;;;;;;;29.83;10.02;;;10.70;57.40;;;;;;6271181;28;20032;-72
2024/01/31 10:16:31;;;;;;;13.93;7.85;;;10.90;57.30;;;;;;6251454;28;20052;-72
2024/01/31 10:19:32;;;;;;;17.05;8.95;;;11.00;57.10;;;;;;6253709;28;20044;-71
2024/01/31 10:22:37;;;;;;;28.25;8.82;;;11.30;56.80;;;;;;6238983;28;20029;-73
2024/01/31 10:25:40;;;;;;;22.65;7.93;;;11.50;56.10;;;;;;6255365;28;20453;-72
2024/01/31 10:28:41;;;;;;;18.48;8.27;;;11.70;55.70;;;;;;6255086;28;20493;-74
2024/01/31 10:31:44;;;;;;;18.73;8.13;;;11.70;55.20;;;;;;6253668;28;20013;-70
2024/01/31 10:34:46;;;;;;;26.67;10.63;;;11.80;54.90;;;;;;6253898;28;20112;-71
2024/01/31 10:37:48;;;;;;;27.75;10.50;;;11.70;54.90;;;;;;6253630;28;20028;-73
2024/01/31 10:40:51;;;;;;;25.08;10.15;;;11.60;54.60;;;;;;6253751;28;20081;-72
2024/01/31 10:43:54;;;;;;;17.58;8.90;;;11.60;54.90;;;;;;6254279;28;20454;-72
2024/01/31 10:46:55;;;;;;;31.38;12.27;;;11.60;54.70;;;;;;6280429;28;20104;-73
2024/01/31 10:49:56;;;;;;;16.98;8.40;;;11.60;54.40;;;;;;6237617;28;20049;-72
2024/01/31 10:52:59;;;;;;;16.40;8.82;;;11.70;54.40;;;;;;6250022;28;20040;-74
2024/01/31 10:56:00;;;;;;;19.30;9.20;;;11.90;54.60;;;;;;6254129;28;20021;-74
2024/01/31 10:59:02;;;;;;;26.70;9.52;;;12.30;54.20;;;;;;6256943;28;20021;-71
2024/01/31 11:02:06;;;;;;;17.88;7.97;;;12.80;53.50;;;;;;6270093;28;20021;-73
2024/01/31 11:05:07;;;;;;;16.38;7.50;;;13.20;52.50;;;;;;6238091;28;20036;-72
2024/01/31 11:08:18;;;;;;;21.90;8.73;;;13.60;51.70;;;;;;6252687;28;21563;-72
2024/01/31 11:11:20;;;;;;;20.17;8.02;;;13.70;50.90;;;;;;6283199;28;20083;-75
2024/01/31 11:14:29;;;;;;;18.77;7.68;;;13.70;50.80;;;;;;6249506;28;20064;-73
2024/01/31 11:17:34;;;;;;;16.02;7.43;;;13.70;51.20;;;;;;6252015;28;20017;-71
2024/01/31 11:20:52;;;;;;;29.98;9.85;;;13.70;51.10;;;;;;6254119;28;20021;-72
2024/01/31 11:23:52;;;;;;;22.73;9.05;;;13.60;50.90;;;;;;6215209;28;20064;-73
2024/01/31 11:26:53;;;;;;;20.02;7.55;;;13.60;50.90;;;;;;6255048;28;20301;-73
2024/01/31 11:29:55;;;;;;;21.48;7.45;;;13.50;50.90;;;;;;6251636;28;20025;-73
2024/01/31 11:32:57;;;;;;;18.80;8.75;;;13.50;51.30;;;;;;6235395;28;20075;-72
2024/01/31 11:35:58;;;;;;;27.35;10.68;;;13.50;50.80;;;;;;6236564;28;20095;-74
2024/01/31 11:38:58;;;;;;;22.80;9.13;;;13.50;50.80;;;;;;6254113;28;20033;-73
2024/01/31 11:42:01;;;;;;;18.27;8.25;;;13.60;50.30;;;;;;6253851;28;20024;-71
2024/01/31 11:45:03;;;;;;;18.77;8.63;;;13.90;50.00;;;;;;6235061;28;20032;-74
2024/01/31 11:48:04;;;;;;;17.17;7.95;;;14.30;49.40;;;;;;6246081;28;20180;-74
2024/01/31 11:51:05;;;;;;;24.55;8.57;;;14.60;48.70;;;;;;6264072;28;20047;-74
2024/01/31 11:54:06;;;;;;;24.02;8.63;;;14.70;48.40;;;;;;6249868;28;20728;-75
2024/01/31 11:57:08;;;;;;;25.25;9.10;;;15.00;47.80;;;;;;6245326;28;20017;-74
2024/01/31 12:00:09;;;;;;;18.05;8.85;;;15.10;47.10;;;;;;6261788;28;20465;-72
2024/01/31 12:03:13;;;;;;;28.55;9.88;;;15.20;46.60;;;;;;6275919;28;20037;-73
2024/01/31 12:06:20;;;;;;;23.95;10.85;;;15.60;45.90;;;;;;6261761;28;21064;-73
2024/01/31 12:09:21;;;;;;;25.70;10.70;;;15.90;45.00;;;;;;6262381;28;20034;-73
2024/01/31 12:12:22;;;;;;;16.42;8.27;;;16.50;44.20;;;;;;6243527;28;20036;-73
2024/01/31 12:15:24;;;;;;;14.40;8.02;;;16.50;44.10;;;;;;6245487;28;20512;-73
2024/01/31 12:18:25;;;;;;;24.38;9.77;;;16.30;44.70;;;;;;6243019;28;20082;-72
2024/01/31 12:21:26;;;;;;;23.00;7.38;;;16.10;44.90;;;;;;6260018;28;20098;-73
2024/01/31 12:24:29;;;;;;;14.20;6.88;;;16.00;45.20;;;;;;6260823;28;20017;-74
2024/01/31 12:27:30;;;;;;;18.00;8.05;;;15.80;45.50;;;;;;6276722;28;20128;-72
2024/01/31 12:30:32;;;;;;;16.33;7.78;;;15.50;45.70;;;;;;6257996;28;20052;-73
2024/01/31 12:33:33;;;;;;;14.25;7.72;;;15.20;46.00;;;;;;6263904;28;20087;-73
2024/01/31 12:36:34;;;;;;;19.50;9.07;;;15.00;46.40;;;;;;6260103;28;20090;-73
2024/01/31 12:39:35;;;;;;;20.00;9.43;;;14.70;47.10;;;;;;6258971;28;20353;-73
2024/01/31 12:42:37;;;;;;;29.52;8.23;;;14.50;47.50;;;;;;6260376;28;20017;-73
2024/01/31 12:45:38;;;;;;;15.10;7.20;;;14.40;47.90;;;;;;6259876;28;20104;-72
2024/01/31 12:48:41;;;;;;;18.23;7.72;;;14.20;48.10;;;;;;6260063;28;20185;-73
2024/01/31 12:51:42;;;;;;;24.67;7.78;;;14.30;48.20;;;;;;6261491;28;20366;-73
2024/01/31 12:54:43;;;;;;;21.88;9.35;;;14.40;48.30;;;;;;6266272;28;20032;-73
2024/01/31 12:57:45;;;;;;;18.75;7.55;;;14.40;48.30;;;;;;6261818;28;21256;-72
2024/01/31 13:00:46;;;;;;;14.13;7.45;;;14.40;48.20;;;;;;6263377;28;20044;-72
2024/01/31 13:03:46;;;;;;;15.05;7.18;;;14.50;48.00;;;;;;6264748;28;20040;-73
2024/01/31 13:06:48;;;;;;;14.88;6.32;;;14.50;47.70;;;;;;6265158;28;20031;-72
2024/01/31 13:09:49;;;;;;;13.63;6.90;;;14.50;47.70;;;;;;6244701;28;20131;-73
2024/01/31 13:12:50;;;;;;;29.23;7.00;;;14.60;47.50;;;;;;6264847;28;20032;-73
2024/01/31 13:15:51;;;;;;;11.73;6.00;;;14.70;47.40;;;;;;6264175;28;20047;-73
2024/01/31 13:18:52;;;;;;;14.18;5.75;;;14.90;46.80;;;;;;6261317;28;20124;-73
2024/01/31 13:21:54;;;;;;;20.70;7.55;;;15.00;46.30;;;;;;6262282;28;20023;-73
2024/01/31 13:24:55;;;;;;;12.95;6.28;;;15.10;45.70;;;;;;6265851;28;20094;-74
2024/01/31 13:27:56;;;;;;;20.90;7.22;;;15.20;45.00;;;;;;6262370;28;20029;-72
2024/01/31 13:30:57;;;;;;;8.98;5.63;;;15.20;44.80;;;;;;6246407;28;20118;-72
2024/01/31 13:33:58;;;;;;;13.40;5.43;;;15.30;44.70;;;;;;6265339;28;20144;-73
2024/01/31 13:37:00;;;;;;;14.40;5.45;;;15.40;44.60;;;;;;6265684;28;20106;-72
2024/01/31 13:40:01;;;;;;;18.65;5.82;;;15.40;44.40;;;;;;6263135;28;20047;-73
2024/01/31 13:43:02;;;;;;;11.38;5.22;;;15.50;44.30;;;;;;6262467;28;20044;-75
2024/01/31 13:46:03;;;;;;;14.32;5.15;;;15.50;43.80;;;;;;6264261;28;20106;-72
2024/01/31 13:49:06;;;;;;;10.43;5.50;;;15.40;43.50;;;;;;6264226;28;20139;-74
2024/01/31 13:52:06;;;;;;;12.50;5.35;;;15.30;43.70;;;;;;6279787;28;20047;-76
2024/01/31 13:55:07;;;;;;;6.97;4.28;;;15.20;44.00;;;;;;6262099;28;20952;-72
2024/01/31 13:58:08;;;;;;;9.00;4.40;;;15.10;44.40;;;;;;6266571;28;20017;-74
2024/01/31 14:01:09;;;;;;;15.63;5.32;;;15.20;44.30;;;;;;6246754;28;20135;-73
2024/01/31 14:04:10;;;;;;;10.40;5.20;;;15.10;43.90;;;;;;6264359;28;20031;-72
2024/01/31 14:07:11;;;;;;;9.77;4.50;;;15.10;44.00;;;;;;6244150;28;20013;-74
2024/01/31 14:10:12;;;;;;;9.73;4.30;;;15.10;44.00;;;;;;6260253;28;20029;-74
2024/01/31 14:13:13;;;;;;;12.40;5.00;;;15.00;44.10;;;;;;6262093;28;20366;-73
2024/01/31 14:16:17;;;;;;;16.55;4.72;;;15.00;44.20;;;;;;6263521;28;20021;-72
2024/01/31 14:19:17;;;;;;;14.48;5.45;;;15.00;44.20;;;;;;6280943;28;20044;-74
2024/01/31 14:22:19;;;;;;;10.27;5.05;;;15.00;44.30;;;;;;6260555;28;20021;-72
2024/01/31 14:25:20;;;;;;;12.63;5.47;;;15.00;44.10;;;;;;6263119;28;20039;-73
2024/01/31 14:28:21;;;;;;;15.25;5.78;;;15.00;44.40;;;;;;6260043;28;20024;-73
2024/01/31 14:31:24;;;;;;;16.27;6.25;;;15.00;44.70;;;;;;6262441;28;20115;-72
2024/01/31 14:34:25;;;;;;;22.42;8.57;;;15.00;44.80;;;;;;6261336;28;20017;-72
2024/01/31 14:37:26;;;;;;;10.88;6.32;;;15.10;44.90;;;;;;6260082;28;20521;-71
2024/01/31 14:40:28;;;;;;;9.55;5.45;;;15.10;44.80;;;;;;6264741;28;20024;-72
2024/01/31 14:43:30;;;;;;;13.77;6.45;;;15.20;44.80;;;;;;6261135;28;20105;-73
2024/01/31 14:46:30;;;;;;;11.32;4.90;;;15.00;44.70;;;;;;6262426;28;20140;-72
2024/01/31 14:49:32;;;;;;;13.90;5.13;;;15.20;45.00;;;;;;6263619;28;20111;-72
2024/01/31 14:52:34;;;;;;;16.92;5.95;;;15.20;45.10;;;;;;6261488;28;20379;-73
2024/01/31 14:55:34;;;;;;;10.73;5.00;;;15.20;45.20;;;;;;6264842;28;20491;-71
2024/01/31 14:58:35;;;;;;;12.52;5.30;;;15.20;45.20;;;;;;6265306;28;20017;-73
2024/01/31 15:01:36;;;;;;;16.30;6.10;;;15.20;45.30;;;;;;6263183;28;20094;-72
2024/01/31 15:04:38;;;;;;;10.25;5.25;;;15.20;45.40;;;;;;6263562;28;20342;-71
2024/01/31 15:07:39;;;;;;;14.13;6.75;;;15.20;45.40;;;;;;6235985;28;20055;-71
2024/01/31 15:10:41;;;;;;;14.82;5.85;;;15.20;45.50;;;;;;6249488;28;20096;-73
2024/01/31 15:13:42;;;;;;;10.57;5.32;;;15.10;45.50;;;;;;6239763;28;20036;-72
2024/01/31 15:16:43;;;;;;;14.25;5.00;;;15.10;45.50;;;;;;6254349;28;20057;-73
2024/01/31 15:19:52;;;;;;;11.68;5.88;;;15.10;45.60;;;;;;6255061;28;20036;-73
2024/01/31 15:22:53;;;;;;;15.02;6.40;;;15.10;45.70;;;;;;6256344;28;20029;-73
2024/01/31 15:25:54;;;;;;;17.98;6.03;;;15.00;45.60;;;;;;6253486;28;20480;-72
2024/01/31 15:28:55;;;;;;;9.73;4.53;;;15.00;45.50;;;;;;6257212;28;20098;-73
2024/01/31 15:31:56;;;;;;;8.20;4.45;;;14.80;45.20;;;;;;6258291;28;20760;-72
2024/01/31 15:34:57;;;;;;;11.73;5.80;;;14.90;44.90;;;;;;6257722;28;20017;-72
2024/01/31 15:37:59;;;;;;;27.10;4.35;;;14.90;44.80;;;;;;6258467;28;20021;-72
2024/01/31 15:41:00;;;;;;;11.65;5.05;;;14.80;44.80;;;;;;6252984;28;20194;-73